Terminal Aerodrome Forecast
Issued by NWS Topeka, KS

Home | Current Version | Previous Version | Graphics & Text | Print | Product List | Glossary On
Versions: 1 2 3 4 5 6 7 8 9 10 11 12 13
000
FTUS43 KTOP 201139
TAFTOP
TAF
KTOP 201139Z 2012/2112 11003KT P6SM FEW200
     FM201500 13012G18KT P6SM SCT200
     FM210000 11008KT P6SM OVC100
     FM211100 11006KT P6SM VCSH OVC040=

USA.gov is the U.S. government's official web portal to all federal, state and local government web resources and services.